Excellent — IBBE — position and weather

sailwx.info

Track history (hours):
 
Tides and Currents Weather Stations Pressure Air Temp Water Temp Dewpoint Dewpoint Depression Visibility Wind Speed Wind Dir Waves Ship Positions

Excellent

Last reported at 2017-Sep-26 02:00 UTC. Time now 2017-Sep-26 02:11 UTC.
Position N 36°00' W 005°11'.

Length 202 m; draft 6.6 m.

Type: Ship. MMSI: 247279000.

Date/timePositionNaut miles runAvg speedWind from/ knotsBaromVisibWave heightAir tempDewpointWater temp
2017-Sep-26 02:00N 36°00' W 005°11'1122.8
2017-Sep-26 01:30N 35°57' W 005°25'5 0.5
2017-Sep-25 16:30N 35°56' W 005°31'817.0
2017-Sep-25 16:00N 36°00' W 005°22'917.9
2017-Sep-25 15:31N 36°02' W 005°11'16319.4
2017-Sep-25 07:06N 36°38' W 001°53'420.2
2017-Sep-25 06:55N 36°41' W 001°50'1420.7
2017-Sep-25 06:13N 36°50' W 001°37'521.2
2017-Sep-25 05:59N 36°53' W 001°32'2021.0
2017-Sep-25 05:02N 37°06' W 001°13'320.8
2017-Sep-25 04:54N 37°08' W 001°10'820.8
2017-Sep-25 04:30N 37°14' W 001°02'1020.6
2017-Sep-25 04:00N 37°21' W 000°53'1120.8
2017-Sep-25 03:30N 37°28' W 000°43'1020.9
2017-Sep-25 03:00N 37°35' W 000°33'1020.6
2017-Sep-25 02:30N 37°44' W 000°28'1320.5
2017-Sep-25 01:52N 37°54' W 000°18'720.4
2017-Sep-25 01:30N 38°00' W 000°12'1320.6
2017-Sep-25 00:53N 38°11' W 000°03'820.7
2017-Sep-25 00:30N 38°18' E 000°03'1020.8
2017-Sep-25 00:00N 38°26' E 000°10'1020.5
2017-Sep-24 23:30N 38°35' E 000°17'1020.1
2017-Sep-24 23:00N 38°43' E 000°24'1019.9
2017-Sep-24 22:30N 38°52' E 000°30'1320.0
2017-Sep-24 21:51N 39°03' E 000°38'720.1
2017-Sep-24 21:30N 39°10' E 000°42'1020.2
2017-Sep-24 21:00N 39°19' E 000°48'1020.3
2017-Sep-24 20:30N 39°28' E 000°54'1020.4
2017-Sep-24 20:00N 39°37' E 001°00'1020.6
2017-Sep-24 19:30N 39°46' E 001°06'1121.1
2017-Sep-24 19:00N 39°55' E 001°13'1121.0
2017-Sep-24 18:30N 40°04' E 001°20'1121.3
2017-Sep-24 18:00N 40°14' E 001°26'1121.1
2017-Sep-24 17:30N 40°23' E 001°33'1020.7
2017-Sep-24 17:00N 40°32' E 001°39'1020.7
2017-Sep-24 16:30N 40°41' E 001°45'1020.6
2017-Sep-24 16:00N 40°50' E 001°52'1020.7
2017-Sep-24 15:30N 40°60' E 001°58'1021.0
2017-Sep-24 15:00N 41°09' E 002°05'1020.1
2017-Sep-24 14:30N 41°18' E 002°10'4 0.7
2017-Sep-24 09:15N 41°22' E 002°11'2 4.7
2017-Sep-24 08:48N 41°20' E 002°10'310.7
2017-Sep-24 08:30N 41°17' E 002°12'1019.2
2017-Sep-24 07:59N 41°22' E 002°23'1120.2
2017-Sep-24 07:27N 41°28' E 002°36'1520.0
2017-Sep-24 06:42N 41°37' E 002°52'719.5
2017-Sep-24 06:21N 41°40' E 002°60'819.3
2017-Sep-24 05:57N 41°44' E 003°09'6420.5
2017-Sep-24 02:50N 42°14' E 004°25'920.9
2017-Sep-24 02:24N 42°17' E 004°36'1020.7
2017-Sep-24 01:56N 42°21' E 004°48'920.6
2017-Sep-24 01:30N 42°25' E 004°59'1420.5
2017-Sep-24 00:48N 42°31' E 005°16'620.4
2017-Sep-24 00:31N 42°34' E 005°24'1020.3
2017-Sep-24 00:00N 42°39' E 005°36'1020.7
2017-Sep-23 23:31N 42°43' E 005°49'1221.1
2017-Sep-23 22:56N 42°48' E 006°03'2620.9
2017-Sep-23 21:43N 42°59' E 006°35'921.1
2017-Sep-23 21:17N 43°05' E 006°45'1520.8
2017-Sep-23 20:33N 43°14' E 007°01'120.9
2017-Sep-23 20:31N 43°15' E 007°02'1020.8
2017-Sep-23 20:01N 43°21' E 007°14'301 7.2
2017-Sep-22 02:00N 40°31' E 001°40'816.8
2017-Sep-22 01:30N 40°23' E 001°36'917.1
2017-Sep-22 01:00N 40°15' E 001°31'816.5
2017-Sep-22 00:30N 40°08' E 001°26'816.7
2017-Sep-22 00:00N 40°01' E 001°20'816.5
2017-Sep-21 23:30N 39°54' E 001°15'916.8
2017-Sep-21 22:59N 39°46' E 001°10'2716.8
2017-Sep-21 21:23N 39°22' E 000°54'716.7
2017-Sep-21 20:57N 39°15' E 000°50'1616.8
2017-Sep-21 19:59N 39°01' E 000°41'917.0
2017-Sep-21 19:26N 38°53' E 000°35'916.9
2017-Sep-21 18:53N 38°44' E 000°29'716.8
2017-Sep-21 18:29N 38°38' E 000°25'918.1
2017-Sep-21 18:00N 38°31' E 000°20'918.1
2017-Sep-21 17:30N 38°23' E 000°14'918.0
2017-Sep-21 16:59N 38°16' E 000°07'817.8
2017-Sep-21 16:30N 38°09' E 000°00'918.9
2017-Sep-21 16:00N 38°01' W 000°06'1320.4
2017-Sep-21 15:22N 37°50' W 000°15'720.3
2017-Sep-21 15:00N 37°44' W 000°21'1020.1
2017-Sep-21 14:30N 37°36' W 000°28'1219.9
2017-Sep-21 13:55N 37°28' W 000°39'920.2
2017-Sep-21 13:29N 37°22' W 000°47'1119.9
2017-Sep-21 12:57N 37°15' W 000°56'21219.8
2017-Sep-21 02:14N 35°60' W 005°03'622.3
2017-Sep-21 01:56N 35°59' W 005°11'921.8
2017-Sep-21 01:31N 35°58' W 005°23'6 0.3
2017-Sep-20 07:11N 35°56' W 005°30'2 8.3
2017-Sep-20 07:00N 35°58' W 005°29'713.9
2017-Sep-20 06:30N 36°00' W 005°21'816.5
2017-Sep-20 06:00N 36°03' W 005°12'22016.7
2017-Sep-19 16:49N 37°20' W 000°55'617.7
2017-Sep-19 16:30N 37°24' W 000°50'917.8
2017-Sep-19 16:00N 37°29' W 000°41'917.6
2017-Sep-19 15:30N 37°35' W 000°33'918.0
2017-Sep-19 15:00N 37°42' W 000°26'918.1
2017-Sep-19 14:30N 37°50' W 000°19'11618.2
2017-Sep-19 08:08N 39°26' E 001°03'318.2
2017-Sep-19 08:00N 39°28' E 001°05'1018.3
2017-Sep-19 07:26N 39°36' E 001°13'818.5
2017-Sep-19 07:00N 39°43' E 001°20'918.4
2017-Sep-19 06:30N 39°50' E 001°27'918.3
2017-Sep-19 06:00N 39°57' E 001°34'917.9
2017-Sep-19 05:30N 40°05' E 001°41'1020.7
2017-Sep-19 05:00N 40°13' E 001°49'1020.4
2017-Sep-19 04:31N 40°21' E 001°56'1019.7
2017-Sep-19 04:00N 40°30' E 002°03'1019.4
2017-Sep-19 03:30N 40°38' E 002°10'1019.4
2017-Sep-19 03:00N 40°46' E 002°18'1019.6
2017-Sep-19 02:30N 40°54' E 002°25'1020.2
2017-Sep-19 02:00N 41°02' E 002°33'1020.3
2017-Sep-19 01:30N 41°10' E 002°41'11319.9
2017-Sep-18 19:48N 42°55' E 003°38'921.0
2017-Sep-18 19:23N 43°04' E 003°41'820.7
2017-Sep-18 19:00N 43°11' E 003°43'1020.4
2017-Sep-18 18:30N 43°21' E 003°45'3 6.8
2017-Sep-18 18:00N 43°24' E 003°42'0 0.0
2017-Sep-18 16:46N 43°24' E 003°42'0 0.0
2017-Sep-18 16:10N 43°24' E 003°42'0 0.0
2017-Sep-18 15:58N 43°24' E 003°42'0 0.0
2017-Sep-18 15:28N 43°24' E 003°42'0 0.0
2017-Sep-18 14:46N 43°24' E 003°42'0 0.0
2017-Sep-18 12:22N 43°24' E 003°42'0 0.0
2017-Sep-18 09:52N 43°24' E 003°42'0 0.0
2017-Sep-18 09:28N 43°24' E 003°42'0 0.0
2017-Sep-18 07:32N 43°24' E 003°42'0 0.0
2017-Sep-18 07:28N 43°24' E 003°42'2 3.6
2017-Sep-18 07:00N 43°24' E 003°45'816.7
2017-Sep-18 06:30N 43°15' E 003°44'13719.1
2017-Sep-17 23:21N 41°17' E 002°12'5 1.2
2017-Sep-17 18:46N 41°22' E 002°11'3 6.2
2017-Sep-17 18:20N 41°19' E 002°10'617.2
2017-Sep-17 18:00N 41°13' E 002°09'1121.9
2017-Sep-17 17:30N 41°04' E 002°03'1222.0
2017-Sep-17 16:59N 40°53' E 001°56'1121.9
2017-Sep-17 16:29N 40°44' E 001°50'1122.2
2017-Sep-17 16:00N 40°34' E 001°44'1122.5
2017-Sep-17 15:30N 40°24' E 001°36'1222.5
2017-Sep-17 14:59N 40°14' E 001°29'1122.1
2017-Sep-17 14:30N 40°05' E 001°22'1122.2
2017-Sep-17 14:00N 39°55' E 001°16'13621.9
2017-Sep-17 07:47N 37°57' W 000°11'821.4
2017-Sep-17 07:26N 37°50' W 000°16'921.2
2017-Sep-17 07:00N 37°43' W 000°22'1121.4
2017-Sep-17 06:30N 37°34' W 000°30'1121.3
2017-Sep-17 06:00N 37°26' W 000°40'1121.5
2017-Sep-17 05:30N 37°19' W 000°49'1121.6
2017-Sep-17 05:00N 37°12' W 000°60'21421.7
2017-Sep-16 19:10N 36°00' W 005°11'425.5
2017-Sep-16 19:00N 35°59' W 005°16'1323.5
2017-Sep-16 18:26N 35°54' W 005°31'2 0.3
2017-Sep-16 10:25N 35°56' W 005°31'716.2
2017-Sep-16 10:00N 35°60' W 005°24'816.3
2017-Sep-16 09:31N 36°02' W 005°14'  
Track history (hours):
 
Tides and Currents Weather Stations Pressure Air Temp Water Temp Dewpoint Dewpoint Depression Visibility Wind Speed Wind Dir Waves Ship Positions

Excellent

Last reported at 2017-Sep-26 02:00 UTC. Time now 2017-Sep-26 02:11 UTC.
Position N 36°00' W 005°11'.

Length 202 m; draft 6.6 m.

Type: Ship. MMSI: 247279000.

Date/timePositionNaut miles runAvg speedWind from/ knotsBaromVisibWave heightAir tempDewpointWater temp
2017-Sep-26 02:00N 36°00' W 005°11'1122.8
2017-Sep-26 01:30N 35°57' W 005°25'5 0.5
2017-Sep-25 16:30N 35°56' W 005°31'817.0
2017-Sep-25 16:00N 36°00' W 005°22'917.9
2017-Sep-25 15:31N 36°02' W 005°11'16319.4
2017-Sep-25 07:06N 36°38' W 001°53'420.2
2017-Sep-25 06:55N 36°41' W 001°50'1420.7
2017-Sep-25 06:13N 36°50' W 001°37'521.2
2017-Sep-25 05:59N 36°53' W 001°32'2021.0
2017-Sep-25 05:02N 37°06' W 001°13'320.8
2017-Sep-25 04:54N 37°08' W 001°10'820.8
2017-Sep-25 04:30N 37°14' W 001°02'1020.6
2017-Sep-25 04:00N 37°21' W 000°53'1120.8
2017-Sep-25 03:30N 37°28' W 000°43'1020.9
2017-Sep-25 03:00N 37°35' W 000°33'1020.6
2017-Sep-25 02:30N 37°44' W 000°28'1320.5
2017-Sep-25 01:52N 37°54' W 000°18'720.4
2017-Sep-25 01:30N 38°00' W 000°12'1320.6
2017-Sep-25 00:53N 38°11' W 000°03'820.7
2017-Sep-25 00:30N 38°18' E 000°03'1020.8
2017-Sep-25 00:00N 38°26' E 000°10'1020.5
2017-Sep-24 23:30N 38°35' E 000°17'1020.1
2017-Sep-24 23:00N 38°43' E 000°24'1019.9
2017-Sep-24 22:30N 38°52' E 000°30'1320.0
2017-Sep-24 21:51N 39°03' E 000°38'720.1
2017-Sep-24 21:30N 39°10' E 000°42'1020.2
2017-Sep-24 21:00N 39°19' E 000°48'1020.3
2017-Sep-24 20:30N 39°28' E 000°54'1020.4
2017-Sep-24 20:00N 39°37' E 001°00'1020.6
2017-Sep-24 19:30N 39°46' E 001°06'1121.1
2017-Sep-24 19:00N 39°55' E 001°13'1121.0
2017-Sep-24 18:30N 40°04' E 001°20'1121.3
2017-Sep-24 18:00N 40°14' E 001°26'1121.1
2017-Sep-24 17:30N 40°23' E 001°33'1020.7
2017-Sep-24 17:00N 40°32' E 001°39'1020.7
2017-Sep-24 16:30N 40°41' E 001°45'1020.6
2017-Sep-24 16:00N 40°50' E 001°52'1020.7
2017-Sep-24 15:30N 40°60' E 001°58'1021.0
2017-Sep-24 15:00N 41°09' E 002°05'1020.1
2017-Sep-24 14:30N 41°18' E 002°10'4 0.7
2017-Sep-24 09:15N 41°22' E 002°11'2 4.7
2017-Sep-24 08:48N 41°20' E 002°10'310.7
2017-Sep-24 08:30N 41°17' E 002°12'1019.2
2017-Sep-24 07:59N 41°22' E 002°23'1120.2
2017-Sep-24 07:27N 41°28' E 002°36'1520.0
2017-Sep-24 06:42N 41°37' E 002°52'719.5
2017-Sep-24 06:21N 41°40' E 002°60'819.3
2017-Sep-24 05:57N 41°44' E 003°09'6420.5
2017-Sep-24 02:50N 42°14' E 004°25'920.9
2017-Sep-24 02:24N 42°17' E 004°36'1020.7
2017-Sep-24 01:56N 42°21' E 004°48'920.6
2017-Sep-24 01:30N 42°25' E 004°59'1420.5
2017-Sep-24 00:48N 42°31' E 005°16'620.4
2017-Sep-24 00:31N 42°34' E 005°24'1020.3
2017-Sep-24 00:00N 42°39' E 005°36'1020.7
2017-Sep-23 23:31N 42°43' E 005°49'1221.1
2017-Sep-23 22:56N 42°48' E 006°03'2620.9
2017-Sep-23 21:43N 42°59' E 006°35'921.1
2017-Sep-23 21:17N 43°05' E 006°45'1520.8
2017-Sep-23 20:33N 43°14' E 007°01'120.9
2017-Sep-23 20:31N 43°15' E 007°02'1020.8
2017-Sep-23 20:01N 43°21' E 007°14'301 7.2
2017-Sep-22 02:00N 40°31' E 001°40'816.8
2017-Sep-22 01:30N 40°23' E 001°36'917.1
2017-Sep-22 01:00N 40°15' E 001°31'816.5
2017-Sep-22 00:30N 40°08' E 001°26'816.7
2017-Sep-22 00:00N 40°01' E 001°20'816.5
2017-Sep-21 23:30N 39°54' E 001°15'916.8
2017-Sep-21 22:59N 39°46' E 001°10'2716.8
2017-Sep-21 21:23N 39°22' E 000°54'716.7
2017-Sep-21 20:57N 39°15' E 000°50'1616.8
2017-Sep-21 19:59N 39°01' E 000°41'917.0
2017-Sep-21 19:26N 38°53' E 000°35'916.9
2017-Sep-21 18:53N 38°44' E 000°29'716.8
2017-Sep-21 18:29N 38°38' E 000°25'918.1
2017-Sep-21 18:00N 38°31' E 000°20'918.1
2017-Sep-21 17:30N 38°23' E 000°14'918.0
2017-Sep-21 16:59N 38°16' E 000°07'817.8
2017-Sep-21 16:30N 38°09' E 000°00'918.9
2017-Sep-21 16:00N 38°01' W 000°06'1320.4
2017-Sep-21 15:22N 37°50' W 000°15'720.3
2017-Sep-21 15:00N 37°44' W 000°21'1020.1
2017-Sep-21 14:30N 37°36' W 000°28'1219.9
2017-Sep-21 13:55N 37°28' W 000°39'920.2
2017-Sep-21 13:29N 37°22' W 000°47'1119.9
2017-Sep-21 12:57N 37°15' W 000°56'21219.8
2017-Sep-21 02:14N 35°60' W 005°03'622.3
2017-Sep-21 01:56N 35°59' W 005°11'921.8
2017-Sep-21 01:31N 35°58' W 005°23'6 0.3
2017-Sep-20 07:11N 35°56' W 005°30'2 8.3
2017-Sep-20 07:00N 35°58' W 005°29'713.9
2017-Sep-20 06:30N 36°00' W 005°21'816.5
2017-Sep-20 06:00N 36°03' W 005°12'22016.7
2017-Sep-19 16:49N 37°20' W 000°55'617.7
2017-Sep-19 16:30N 37°24' W 000°50'917.8
2017-Sep-19 16:00N 37°29' W 000°41'917.6
2017-Sep-19 15:30N 37°35' W 000°33'918.0
2017-Sep-19 15:00N 37°42' W 000°26'918.1
2017-Sep-19 14:30N 37°50' W 000°19'11618.2
2017-Sep-19 08:08N 39°26' E 001°03'318.2
2017-Sep-19 08:00N 39°28' E 001°05'1018.3
2017-Sep-19 07:26N 39°36' E 001°13'818.5
2017-Sep-19 07:00N 39°43' E 001°20'918.4
2017-Sep-19 06:30N 39°50' E 001°27'918.3
2017-Sep-19 06:00N 39°57' E 001°34'917.9
2017-Sep-19 05:30N 40°05' E 001°41'1020.7
2017-Sep-19 05:00N 40°13' E 001°49'1020.4
2017-Sep-19 04:31N 40°21' E 001°56'1019.7
2017-Sep-19 04:00N 40°30' E 002°03'1019.4
2017-Sep-19 03:30N 40°38' E 002°10'1019.4
2017-Sep-19 03:00N 40°46' E 002°18'1019.6
2017-Sep-19 02:30N 40°54' E 002°25'1020.2
2017-Sep-19 02:00N 41°02' E 002°33'1020.3
2017-Sep-19 01:30N 41°10' E 002°41'11319.9
2017-Sep-18 19:48N 42°55' E 003°38'921.0
2017-Sep-18 19:23N 43°04' E 003°41'820.7
2017-Sep-18 19:00N 43°11' E 003°43'1020.4
2017-Sep-18 18:30N 43°21' E 003°45'3 6.8
2017-Sep-18 18:00N 43°24' E 003°42'0 0.0
2017-Sep-18 16:46N 43°24' E 003°42'0 0.0
2017-Sep-18 16:10N 43°24' E 003°42'0 0.0
2017-Sep-18 15:58N 43°24' E 003°42'0 0.0
2017-Sep-18 15:28N 43°24' E 003°42'0 0.0
2017-Sep-18 14:46N 43°24' E 003°42'0 0.0
2017-Sep-18 12:22N 43°24' E 003°42'0 0.0
2017-Sep-18 09:52N 43°24' E 003°42'0 0.0
2017-Sep-18 09:28N 43°24' E 003°42'0 0.0
2017-Sep-18 07:32N 43°24' E 003°42'0 0.0
2017-Sep-18 07:28N 43°24' E 003°42'2 3.6
2017-Sep-18 07:00N 43°24' E 003°45'816.7
2017-Sep-18 06:30N 43°15' E 003°44'13719.1
2017-Sep-17 23:21N 41°17' E 002°12'5 1.2
2017-Sep-17 18:46N 41°22' E 002°11'3 6.2
2017-Sep-17 18:20N 41°19' E 002°10'617.2
2017-Sep-17 18:00N 41°13' E 002°09'1121.9
2017-Sep-17 17:30N 41°04' E 002°03'1222.0
2017-Sep-17 16:59N 40°53' E 001°56'1121.9
2017-Sep-17 16:29N 40°44' E 001°50'1122.2
2017-Sep-17 16:00N 40°34' E 001°44'1122.5
2017-Sep-17 15:30N 40°24' E 001°36'1222.5
2017-Sep-17 14:59N 40°14' E 001°29'1122.1
2017-Sep-17 14:30N 40°05' E 001°22'1122.2
2017-Sep-17 14:00N 39°55' E 001°16'13621.9
2017-Sep-17 07:47N 37°57' W 000°11'821.4
2017-Sep-17 07:26N 37°50' W 000°16'921.2
2017-Sep-17 07:00N 37°43' W 000°22'1121.4
2017-Sep-17 06:30N 37°34' W 000°30'1121.3
2017-Sep-17 06:00N 37°26' W 000°40'1121.5
2017-Sep-17 05:30N 37°19' W 000°49'1121.6
2017-Sep-17 05:00N 37°12' W 000°60'21421.7
2017-Sep-16 19:10N 36°00' W 005°11'425.5
2017-Sep-16 19:00N 35°59' W 005°16'1323.5
2017-Sep-16 18:26N 35°54' W 005°31'2 0.3
2017-Sep-16 10:25N 35°56' W 005°31'716.2
2017-Sep-16 10:00N 35°60' W 005°24'816.3
2017-Sep-16 09:31N 36°02' W 005°14'  

Dump ship's entire track history